sensor_id;sensor_type;location;lat;lon;timestamp;P1;durP1;ratioP1;P2;durP2;ratioP2
49852;SDS011;35751;48.072;11.688;2023-06-01T00:01:08;11.88;;;6.30;;
49852;SDS011;35751;48.072;11.688;2023-06-01T00:03:37;10.15;;;6.90;;
49852;SDS011;35751;48.072;11.688;2023-06-01T00:06:03;10.10;;;7.13;;
49852;SDS011;35751;48.072;11.688;2023-06-01T00:08:28;9.50;;;7.18;;
49852;SDS011;35751;48.072;11.688;2023-06-01T00:10:54;8.70;;;6.45;;
49852;SDS011;35751;48.072;11.688;2023-06-01T00:13:19;9.27;;;6.88;;
49852;SDS011;35751;48.072;11.688;2023-06-01T00:15:44;9.43;;;6.95;;
49852;SDS011;35751;48.072;11.688;2023-06-01T00:18:10;13.88;;;8.20;;
49852;SDS011;35751;48.072;11.688;2023-06-01T00:20:37;13.50;;;7.10;;
49852;SDS011;35751;48.072;11.688;2023-06-01T00:23:04;8.73;;;6.65;;
49852;SDS011;35751;48.072;11.688;2023-06-01T00:25:29;11.85;;;7.63;;
49852;SDS011;35751;48.072;11.688;2023-06-01T00:27:54;11.52;;;7.07;;
49852;SDS011;35751;48.072;11.688;2023-06-01T00:30:20;9.48;;;7.00;;
49852;SDS011;35751;48.072;11.688;2023-06-01T00:32:46;10.50;;;7.95;;
49852;SDS011;35751;48.072;11.688;2023-06-01T00:35:11;8.95;;;7.57;;
49852;SDS011;35751;48.072;11.688;2023-06-01T00:37:36;12.75;;;7.22;;
49852;SDS011;35751;48.072;11.688;2023-06-01T00:40:02;11.48;;;7.38;;
49852;SDS011;35751;48.072;11.688;2023-06-01T00:42:27;9.40;;;6.72;;
49852;SDS011;35751;48.072;11.688;2023-06-01T00:44:53;7.85;;;7.00;;
49852;SDS011;35751;48.072;11.688;2023-06-01T00:47:18;10.27;;;6.18;;
49852;SDS011;35751;48.072;11.688;2023-06-01T00:49:44;10.40;;;7.57;;
49852;SDS011;35751;48.072;11.688;2023-06-01T00:52:10;11.45;;;7.72;;
49852;SDS011;35751;48.072;11.688;2023-06-01T00:54:35;10.73;;;7.30;;
49852;SDS011;35751;48.072;11.688;2023-06-01T00:57:00;10.52;;;7.57;;
49852;SDS011;35751;48.072;11.688;2023-06-01T00:59:26;11.07;;;7.05;;
49852;SDS011;35751;48.072;11.688;2023-06-01T01:01:52;10.80;;;6.97;;
49852;SDS011;35751;48.072;11.688;2023-06-01T01:04:18;9.73;;;7.78;;
49852;SDS011;35751;48.072;11.688;2023-06-01T01:09:49;8.95;;;7.10;;
49852;SDS011;35751;48.072;11.688;2023-06-01T01:12:23;11.38;;;7.75;;
49852;SDS011;35751;48.072;11.688;2023-06-01T01:14:58;8.93;;;7.05;;
49852;SDS011;35751;48.072;11.688;2023-06-01T01:17:29;11.67;;;8.53;;
49852;SDS011;35751;48.072;11.688;2023-06-01T01:20:01;10.10;;;7.50;;
49852;SDS011;35751;48.072;11.688;2023-06-01T01:30:43;14.90;;;7.95;;
49852;SDS011;35751;48.072;11.688;2023-06-01T01:33:10;12.07;;;7.40;;
49852;SDS011;35751;48.072;11.688;2023-06-01T01:35:36;12.18;;;8.20;;
49852;SDS011;35751;48.072;11.688;2023-06-01T01:38:02;10.15;;;7.18;;
49852;SDS011;35751;48.072;11.688;2023-06-01T01:40:27;10.57;;;7.68;;
49852;SDS011;35751;48.072;11.688;2023-06-01T01:42:53;12.75;;;7.78;;
49852;SDS011;35751;48.072;11.688;2023-06-01T01:45:19;11.20;;;7.95;;
49852;SDS011;35751;48.072;11.688;2023-06-01T01:47:53;11.07;;;8.60;;
49852;SDS011;35751;48.072;11.688;2023-06-01T01:50:21;14.98;;;8.60;;
49852;SDS011;35751;48.072;11.688;2023-06-01T01:52:51;16.25;;;8.82;;
49852;SDS011;35751;48.072;11.688;2023-06-01T01:55:17;13.02;;;9.10;;
49852;SDS011;35751;48.072;11.688;2023-06-01T01:57:43;9.85;;;7.43;;
49852;SDS011;35751;48.072;11.688;2023-06-01T02:00:09;12.43;;;8.23;;
49852;SDS011;35751;48.072;11.688;2023-06-01T02:02:36;10.85;;;8.32;;
49852;SDS011;35751;48.072;11.688;2023-06-01T02:05:02;12.93;;;8.15;;
49852;SDS011;35751;48.072;11.688;2023-06-01T02:07:27;13.05;;;8.02;;
49852;SDS011;35751;48.072;11.688;2023-06-01T02:09:53;12.23;;;8.55;;
49852;SDS011;35751;48.072;11.688;2023-06-01T02:12:18;11.48;;;8.98;;
49852;SDS011;35751;48.072;11.688;2023-06-01T02:14:43;10.85;;;8.57;;
49852;SDS011;35751;48.072;11.688;2023-06-01T02:17:09;11.32;;;7.70;;
49852;SDS011;35751;48.072;11.688;2023-06-01T02:19:34;12.95;;;8.15;;
49852;SDS011;35751;48.072;11.688;2023-06-01T02:22:00;12.48;;;8.13;;
49852;SDS011;35751;48.072;11.688;2023-06-01T02:24:25;11.73;;;8.32;;
49852;SDS011;35751;48.072;11.688;2023-06-01T02:26:50;13.63;;;8.52;;
49852;SDS011;35751;48.072;11.688;2023-06-01T02:29:19;10.43;;;7.50;;
49852;SDS011;35751;48.072;11.688;2023-06-01T02:31:48;10.25;;;8.48;;
49852;SDS011;35751;48.072;11.688;2023-06-01T02:34:15;13.52;;;8.73;;
49852;SDS011;35751;48.072;11.688;2023-06-01T02:36:42;12.38;;;8.02;;
49852;SDS011;35751;48.072;11.688;2023-06-01T02:39:07;13.85;;;7.95;;
49852;SDS011;35751;48.072;11.688;2023-06-01T02:41:33;12.13;;;8.45;;
49852;SDS011;35751;48.072;11.688;2023-06-01T02:43:58;15.02;;;10.30;;
49852;SDS011;35751;48.072;11.688;2023-06-01T02:46:23;11.43;;;8.95;;
49852;SDS011;35751;48.072;11.688;2023-06-01T02:48:49;12.73;;;8.55;;
49852;SDS011;35751;48.072;11.688;2023-06-01T02:51:15;11.20;;;8.50;;
49852;SDS011;35751;48.072;11.688;2023-06-01T02:53:41;10.55;;;8.15;;
49852;SDS011;35751;48.072;11.688;2023-06-01T02:56:06;12.52;;;8.73;;
49852;SDS011;35751;48.072;11.688;2023-06-01T02:58:32;12.63;;;9.07;;
49852;SDS011;35751;48.072;11.688;2023-06-01T03:00:58;11.95;;;8.13;;
49852;SDS011;35751;48.072;11.688;2023-06-01T03:03:23;13.52;;;10.02;;
49852;SDS011;35751;48.072;11.688;2023-06-01T03:05:50;14.30;;;8.82;;
49852;SDS011;35751;48.072;11.688;2023-06-01T03:08:15;14.57;;;8.90;;
49852;SDS011;35751;48.072;11.688;2023-06-01T03:10:41;17.55;;;10.73;;
49852;SDS011;35751;48.072;11.688;2023-06-01T03:13:07;12.60;;;9.10;;
49852;SDS011;35751;48.072;11.688;2023-06-01T03:15:32;11.48;;;8.27;;
49852;SDS011;35751;48.072;11.688;2023-06-01T03:17:58;8.80;;;7.78;;
49852;SDS011;35751;48.072;11.688;2023-06-01T03:20:23;10.82;;;8.07;;
49852;SDS011;35751;48.072;11.688;2023-06-01T03:22:49;15.25;;;8.43;;
49852;SDS011;35751;48.072;11.688;2023-06-01T03:25:14;14.23;;;8.55;;
49852;SDS011;35751;48.072;11.688;2023-06-01T03:27:41;14.57;;;9.40;;
49852;SDS011;35751;48.072;11.688;2023-06-01T03:30:07;11.75;;;7.28;;
49852;SDS011;35751;48.072;11.688;2023-06-01T03:32:37;13.52;;;8.85;;
49852;SDS011;35751;48.072;11.688;2023-06-01T03:35:03;9.23;;;7.68;;
49852;SDS011;35751;48.072;11.688;2023-06-01T03:37:29;11.15;;;8.65;;
49852;SDS011;35751;48.072;11.688;2023-06-01T03:39:54;12.60;;;8.05;;
49852;SDS011;35751;48.072;11.688;2023-06-01T03:42:20;9.93;;;8.82;;
49852;SDS011;35751;48.072;11.688;2023-06-01T03:44:45;11.77;;;8.90;;
49852;SDS011;35751;48.072;11.688;2023-06-01T03:47:10;16.73;;;9.15;;
49852;SDS011;35751;48.072;11.688;2023-06-01T03:49:36;12.57;;;8.35;;
49852;SDS011;35751;48.072;11.688;2023-06-01T03:52:01;13.07;;;9.65;;
49852;SDS011;35751;48.072;11.688;2023-06-01T03:54:27;11.38;;;9.18;;
49852;SDS011;35751;48.072;11.688;2023-06-01T03:56:52;15.45;;;9.25;;
49852;SDS011;35751;48.072;11.688;2023-06-01T03:59:17;14.32;;;8.25;;
49852;SDS011;35751;48.072;11.688;2023-06-01T04:01:42;14.75;;;9.90;;
49852;SDS011;35751;48.072;11.688;2023-06-01T04:04:08;13.30;;;9.40;;
49852;SDS011;35751;48.072;11.688;2023-06-01T04:06:34;13.07;;;9.02;;
49852;SDS011;35751;48.072;11.688;2023-06-01T04:09:03;13.57;;;9.65;;
49852;SDS011;35751;48.072;11.688;2023-06-01T04:11:34;15.70;;;10.88;;
49852;SDS011;35751;48.072;11.688;2023-06-01T04:14:00;12.30;;;8.55;;
49852;SDS011;35751;48.072;11.688;2023-06-01T04:16:25;12.23;;;8.57;;
49852;SDS011;35751;48.072;11.688;2023-06-01T04:18:51;16.13;;;8.93;;
49852;SDS011;35751;48.072;11.688;2023-06-01T04:21:17;10.05;;;8.02;;
49852;SDS011;35751;48.072;11.688;2023-06-01T04:23:42;12.07;;;9.23;;
49852;SDS011;35751;48.072;11.688;2023-06-01T04:26:08;13.63;;;8.60;;
49852;SDS011;35751;48.072;11.688;2023-06-01T04:28:33;22.35;;;11.40;;
49852;SDS011;35751;48.072;11.688;2023-06-01T04:30:59;12.98;;;9.80;;
49852;SDS011;35751;48.072;11.688;2023-06-01T04:33:27;15.52;;;8.98;;
49852;SDS011;35751;48.072;11.688;2023-06-01T04:35:52;11.43;;;9.38;;
49852;SDS011;35751;48.072;11.688;2023-06-01T04:38:19;12.18;;;9.55;;
49852;SDS011;35751;48.072;11.688;2023-06-01T04:40:44;11.07;;;7.85;;
49852;SDS011;35751;48.072;11.688;2023-06-01T04:43:10;11.35;;;9.23;;
49852;SDS011;35751;48.072;11.688;2023-06-01T04:45:36;13.85;;;8.77;;
49852;SDS011;35751;48.072;11.688;2023-06-01T04:48:03;13.77;;;9.35;;
49852;SDS011;35751;48.072;11.688;2023-06-01T04:50:33;10.98;;;8.50;;
49852;SDS011;35751;48.072;11.688;2023-06-01T04:52:59;12.93;;;9.00;;
49852;SDS011;35751;48.072;11.688;2023-06-01T04:55:25;12.50;;;9.35;;
49852;SDS011;35751;48.072;11.688;2023-06-01T04:57:51;12.77;;;8.55;;
49852;SDS011;35751;48.072;11.688;2023-06-01T05:00:16;13.32;;;10.07;;
49852;SDS011;35751;48.072;11.688;2023-06-01T05:02:43;19.55;;;10.73;;
49852;SDS011;35751;48.072;11.688;2023-06-01T05:05:10;17.27;;;10.32;;
49852;SDS011;35751;48.072;11.688;2023-06-01T05:07:36;14.93;;;10.02;;
49852;SDS011;35751;48.072;11.688;2023-06-01T05:10:02;15.85;;;10.35;;
49852;SDS011;35751;48.072;11.688;2023-06-01T05:12:34;12.15;;;9.50;;
49852;SDS011;35751;48.072;11.688;2023-06-01T05:15:00;18.50;;;10.07;;
49852;SDS011;35751;48.072;11.688;2023-06-01T05:17:27;14.80;;;9.60;;
49852;SDS011;35751;48.072;11.688;2023-06-01T05:19:52;18.42;;;10.00;;
49852;SDS011;35751;48.072;11.688;2023-06-01T05:22:18;13.73;;;10.02;;
49852;SDS011;35751;48.072;11.688;2023-06-01T05:24:43;12.63;;;9.50;;
49852;SDS011;35751;48.072;11.688;2023-06-01T05:27:08;13.02;;;8.02;;
49852;SDS011;35751;48.072;11.688;2023-06-01T05:29:34;12.90;;;8.63;;
49852;SDS011;35751;48.072;11.688;2023-06-01T05:31:59;14.90;;;8.88;;
49852;SDS011;35751;48.072;11.688;2023-06-01T05:34:25;9.70;;;7.38;;
49852;SDS011;35751;48.072;11.688;2023-06-01T05:36:50;13.77;;;8.10;;
49852;SDS011;35751;48.072;11.688;2023-06-01T05:39:16;11.70;;;8.18;;
49852;SDS011;35751;48.072;11.688;2023-06-01T05:41:41;12.00;;;8.05;;
49852;SDS011;35751;48.072;11.688;2023-06-01T05:44:06;13.13;;;8.52;;
49852;SDS011;35751;48.072;11.688;2023-06-01T05:46:32;11.32;;;8.57;;
49852;SDS011;35751;48.072;11.688;2023-06-01T05:48:58;10.27;;;7.75;;
49852;SDS011;35751;48.072;11.688;2023-06-01T05:51:23;13.15;;;7.88;;
49852;SDS011;35751;48.072;11.688;2023-06-01T05:53:48;11.90;;;8.18;;
49852;SDS011;35751;48.072;11.688;2023-06-01T05:56:14;9.60;;;7.40;;
49852;SDS011;35751;48.072;11.688;2023-06-01T05:58:39;11.02;;;7.95;;
49852;SDS011;35751;48.072;11.688;2023-06-01T06:01:04;14.38;;;9.13;;
49852;SDS011;35751;48.072;11.688;2023-06-01T06:03:30;13.60;;;8.07;;
49852;SDS011;35751;48.072;11.688;2023-06-01T06:05:55;11.80;;;8.05;;
49852;SDS011;35751;48.072;11.688;2023-06-01T06:08:21;13.23;;;8.60;;
49852;SDS011;35751;48.072;11.688;2023-06-01T06:10:46;12.85;;;7.55;;
49852;SDS011;35751;48.072;11.688;2023-06-01T06:13:13;10.70;;;6.63;;
49852;SDS011;35751;48.072;11.688;2023-06-01T06:15:39;12.20;;;7.72;;
49852;SDS011;35751;48.072;11.688;2023-06-01T06:18:04;9.13;;;6.97;;
49852;SDS011;35751;48.072;11.688;2023-06-01T06:20:30;11.48;;;8.18;;
49852;SDS011;35751;48.072;11.688;2023-06-01T06:22:56;9.85;;;7.28;;
49852;SDS011;35751;48.072;11.688;2023-06-01T06:25:21;10.15;;;7.05;;
49852;SDS011;35751;48.072;11.688;2023-06-01T06:27:47;10.73;;;6.45;;
49852;SDS011;35751;48.072;11.688;2023-06-01T06:30:12;12.95;;;7.07;;
49852;SDS011;35751;48.072;11.688;2023-06-01T06:32:38;13.70;;;7.82;;
49852;SDS011;35751;48.072;11.688;2023-06-01T06:35:03;11.63;;;7.20;;
49852;SDS011;35751;48.072;11.688;2023-06-01T06:37:29;15.10;;;7.45;;
49852;SDS011;35751;48.072;11.688;2023-06-01T06:39:55;11.88;;;7.22;;
49852;SDS011;35751;48.072;11.688;2023-06-01T06:42:20;9.52;;;6.95;;
49852;SDS011;35751;48.072;11.688;2023-06-01T06:44:46;12.30;;;7.47;;
49852;SDS011;35751;48.072;11.688;2023-06-01T06:47:11;9.95;;;6.32;;
49852;SDS011;35751;48.072;11.688;2023-06-01T06:49:40;14.68;;;7.32;;
49852;SDS011;35751;48.072;11.688;2023-06-01T06:52:05;11.20;;;6.35;;
49852;SDS011;35751;48.072;11.688;2023-06-01T06:54:31;12.20;;;7.07;;
49852;SDS011;35751;48.072;11.688;2023-06-01T06:56:56;8.50;;;6.75;;
49852;SDS011;35751;48.072;11.688;2023-06-01T06:59:21;16.98;;;7.65;;
49852;SDS011;35751;48.072;11.688;2023-06-01T07:01:47;17.00;;;7.80;;
49852;SDS011;35751;48.072;11.688;2023-06-01T07:04:12;12.75;;;8.25;;
49852;SDS011;35751;48.072;11.688;2023-06-01T07:06:37;12.05;;;7.18;;
49852;SDS011;35751;48.072;11.688;2023-06-01T07:09:03;9.05;;;6.38;;
49852;SDS011;35751;48.072;11.688;2023-06-01T07:11:30;8.50;;;7.07;;
49852;SDS011;35751;48.072;11.688;2023-06-01T07:13:56;14.45;;;7.35;;
49852;SDS011;35751;48.072;11.688;2023-06-01T07:16:22;10.85;;;7.10;;
49852;SDS011;35751;48.072;11.688;2023-06-01T07:18:49;10.02;;;8.48;;
49852;SDS011;35751;48.072;11.688;2023-06-01T07:21:16;13.23;;;9.57;;
49852;SDS011;35751;48.072;11.688;2023-06-01T07:23:41;12.52;;;8.10;;
49852;SDS011;35751;48.072;11.688;2023-06-01T07:26:08;10.70;;;8.18;;
49852;SDS011;35751;48.072;11.688;2023-06-01T07:28:33;16.75;;;8.45;;
49852;SDS011;35751;48.072;11.688;2023-06-01T07:30:59;9.63;;;7.15;;
49852;SDS011;35751;48.072;11.688;2023-06-01T07:33:24;10.38;;;7.53;;
49852;SDS011;35751;48.072;11.688;2023-06-01T07:35:50;11.30;;;7.97;;
49852;SDS011;35751;48.072;11.688;2023-06-01T07:38:18;12.25;;;7.13;;
49852;SDS011;35751;48.072;11.688;2023-06-01T07:40:44;9.07;;;7.28;;
49852;SDS011;35751;48.072;11.688;2023-06-01T07:43:10;10.55;;;6.50;;
49852;SDS011;35751;48.072;11.688;2023-06-01T07:45:35;10.57;;;6.25;;
49852;SDS011;35751;48.072;11.688;2023-06-01T07:48:01;14.48;;;8.02;;
49852;SDS011;35751;48.072;11.688;2023-06-01T07:50:26;13.38;;;6.50;;
49852;SDS011;35751;48.072;11.688;2023-06-01T07:52:55;11.15;;;7.25;;
49852;SDS011;35751;48.072;11.688;2023-06-01T07:55:22;11.05;;;6.63;;
49852;SDS011;35751;48.072;11.688;2023-06-01T07:57:47;12.68;;;7.95;;
49852;SDS011;35751;48.072;11.688;2023-06-01T08:00:13;11.40;;;7.65;;
49852;SDS011;35751;48.072;11.688;2023-06-01T08:02:42;14.10;;;8.60;;
49852;SDS011;35751;48.072;11.688;2023-06-01T08:05:07;11.68;;;6.75;;
49852;SDS011;35751;48.072;11.688;2023-06-01T08:07:34;9.95;;;6.72;;
49852;SDS011;35751;48.072;11.688;2023-06-01T08:10:00;12.85;;;7.45;;
49852;SDS011;35751;48.072;11.688;2023-06-01T08:12:26;10.95;;;7.25;;
49852;SDS011;35751;48.072;11.688;2023-06-01T08:14:52;12.00;;;7.13;;
49852;SDS011;35751;48.072;11.688;2023-06-01T08:17:17;10.57;;;6.35;;
49852;SDS011;35751;48.072;11.688;2023-06-01T08:19:43;11.43;;;6.85;;
49852;SDS011;35751;48.072;11.688;2023-06-01T08:22:09;10.38;;;6.38;;
49852;SDS011;35751;48.072;11.688;2023-06-01T08:24:37;12.10;;;6.35;;
49852;SDS011;35751;48.072;11.688;2023-06-01T08:27:14;10.68;;;6.10;;
49852;SDS011;35751;48.072;11.688;2023-06-01T08:36:27;13.70;;;6.68;;
49852;SDS011;35751;48.072;11.688;2023-06-01T08:38:54;9.75;;;6.28;;
49852;SDS011;35751;48.072;11.688;2023-06-01T08:44:04;8.88;;;6.13;;
49852;SDS011;35751;48.072;11.688;2023-06-01T08:46:31;7.72;;;5.38;;
49852;SDS011;35751;48.072;11.688;2023-06-01T08:48:58;16.40;;;6.30;;
49852;SDS011;35751;48.072;11.688;2023-06-01T08:51:24;6.40;;;5.50;;
49852;SDS011;35751;48.072;11.688;2023-06-01T08:53:50;9.20;;;5.45;;
49852;SDS011;35751;48.072;11.688;2023-06-01T08:56:16;9.45;;;6.47;;
49852;SDS011;35751;48.072;11.688;2023-06-01T08:58:43;8.70;;;5.97;;
49852;SDS011;35751;48.072;11.688;2023-06-01T09:01:08;9.85;;;5.70;;
49852;SDS011;35751;48.072;11.688;2023-06-01T09:03:35;7.63;;;6.13;;
49852;SDS011;35751;48.072;11.688;2023-06-01T09:06:00;12.02;;;6.18;;
49852;SDS011;35751;48.072;11.688;2023-06-01T09:08:25;10.77;;;6.75;;
49852;SDS011;35751;48.072;11.688;2023-06-01T09:10:50;9.57;;;5.60;;
49852;SDS011;35751;48.072;11.688;2023-06-01T09:16:01;9.55;;;5.68;;
49852;SDS011;35751;48.072;11.688;2023-06-01T09:18:27;8.68;;;5.95;;
49852;SDS011;35751;48.072;11.688;2023-06-01T09:20:52;6.30;;;5.05;;
49852;SDS011;35751;48.072;11.688;2023-06-01T09:23:25;7.38;;;5.53;;
49852;SDS011;35751;48.072;11.688;2023-06-01T09:26:07;6.53;;;5.03;;
49852;SDS011;35751;48.072;11.688;2023-06-01T09:34:10;8.13;;;5.90;;
49852;SDS011;35751;48.072;11.688;2023-06-01T09:36:36;9.05;;;5.80;;
49852;SDS011;35751;48.072;11.688;2023-06-01T09:39:02;9.45;;;6.43;;
49852;SDS011;35751;48.072;11.688;2023-06-01T09:44:14;8.32;;;5.95;;
49852;SDS011;35751;48.072;11.688;2023-06-01T09:46:50;7.05;;;6.35;;
49852;SDS011;35751;48.072;11.688;2023-06-01T09:49:26;9.95;;;6.38;;
49852;SDS011;35751;48.072;11.688;2023-06-01T09:51:53;7.82;;;5.65;;
49852;SDS011;35751;48.072;11.688;2023-06-01T09:54:22;7.97;;;5.47;;
49852;SDS011;35751;48.072;11.688;2023-06-01T09:56:49;7.55;;;5.55;;
49852;SDS011;35751;48.072;11.688;2023-06-01T09:59:15;8.02;;;6.00;;
49852;SDS011;35751;48.072;11.688;2023-06-01T10:01:40;7.43;;;5.65;;
49852;SDS011;35751;48.072;11.688;2023-06-01T10:04:05;12.73;;;5.78;;
49852;SDS011;35751;48.072;11.688;2023-06-01T10:06:35;8.43;;;5.57;;
49852;SDS011;35751;48.072;11.688;2023-06-01T10:09:05;7.30;;;6.15;;
49852;SDS011;35751;48.072;11.688;2023-06-01T10:11:32;9.98;;;5.55;;
49852;SDS011;35751;48.072;11.688;2023-06-01T10:13:58;8.90;;;6.13;;
49852;SDS011;35751;48.072;11.688;2023-06-01T10:16:24;6.40;;;5.40;;
49852;SDS011;35751;48.072;11.688;2023-06-01T10:18:50;9.27;;;5.05;;
49852;SDS011;35751;48.072;11.688;2023-06-01T10:21:17;9.07;;;6.03;;
49852;SDS011;35751;48.072;11.688;2023-06-01T10:23:43;6.25;;;5.10;;
49852;SDS011;35751;48.072;11.688;2023-06-01T10:26:10;6.82;;;5.88;;
49852;SDS011;35751;48.072;11.688;2023-06-01T10:28:37;8.02;;;5.95;;
49852;SDS011;35751;48.072;11.688;2023-06-01T10:31:32;7.90;;;5.55;;
49852;SDS011;35751;48.072;11.688;2023-06-01T10:34:02;8.48;;;5.45;;
49852;SDS011;35751;48.072;11.688;2023-06-01T10:39:21;18.80;;;7.07;;
49852;SDS011;35751;48.072;11.688;2023-06-01T10:47:05;5.53;;;4.82;;
49852;SDS011;35751;48.072;11.688;2023-06-01T10:52:28;9.90;;;6.22;;
49852;SDS011;35751;48.072;11.688;2023-06-01T10:57:30;9.50;;;5.63;;
49852;SDS011;35751;48.072;11.688;2023-06-01T11:03:03;11.45;;;5.07;;
49852;SDS011;35751;48.072;11.688;2023-06-01T11:05:36;8.75;;;5.50;;
49852;SDS011;35751;48.072;11.688;2023-06-01T11:18:42;6.35;;;5.45;;
49852;SDS011;35751;48.072;11.688;2023-06-01T11:21:08;7.82;;;5.55;;
49852;SDS011;35751;48.072;11.688;2023-06-01T11:23:34;9.73;;;5.50;;
49852;SDS011;35751;48.072;11.688;2023-06-01T11:26:00;13.32;;;5.78;;
49852;SDS011;35751;48.072;11.688;2023-06-01T11:28:32;7.50;;;5.53;;
49852;SDS011;35751;48.072;11.688;2023-06-01T11:31:01;8.35;;;5.55;;
49852;SDS011;35751;48.072;11.688;2023-06-01T11:33:28;7.18;;;4.97;;
49852;SDS011;35751;48.072;11.688;2023-06-01T11:36:01;8.77;;;5.90;;
49852;SDS011;35751;48.072;11.688;2023-06-01T11:38:33;8.73;;;5.38;;
49852;SDS011;35751;48.072;11.688;2023-06-01T11:41:03;8.80;;;5.45;;
49852;SDS011;35751;48.072;11.688;2023-06-01T11:43:31;6.25;;;5.32;;
49852;SDS011;35751;48.072;11.688;2023-06-01T11:46:01;9.45;;;6.07;;
49852;SDS011;35751;48.072;11.688;2023-06-01T11:48:27;6.00;;;5.40;;
49852;SDS011;35751;48.072;11.688;2023-06-01T11:50:52;6.43;;;4.72;;
49852;SDS011;35751;48.072;11.688;2023-06-01T11:53:19;7.53;;;5.68;;
49852;SDS011;35751;48.072;11.688;2023-06-01T11:55:51;7.15;;;5.38;;
49852;SDS011;35751;48.072;11.688;2023-06-01T12:00:51;6.88;;;5.45;;
49852;SDS011;35751;48.072;11.688;2023-06-01T12:03:20;9.50;;;5.43;;
49852;SDS011;35751;48.072;11.688;2023-06-01T12:05:46;7.65;;;5.43;;
49852;SDS011;35751;48.072;11.688;2023-06-01T12:08:16;6.88;;;5.43;;
49852;SDS011;35751;48.072;11.688;2023-06-01T12:10:46;7.05;;;5.82;;
49852;SDS011;35751;48.072;11.688;2023-06-01T12:13:12;7.10;;;6.38;;
49852;SDS011;35751;48.072;11.688;2023-06-01T12:15:40;9.23;;;5.88;;
49852;SDS011;35751;48.072;11.688;2023-06-01T12:18:06;8.38;;;5.05;;
49852;SDS011;35751;48.072;11.688;2023-06-01T12:20:32;9.35;;;5.85;;
49852;SDS011;35751;48.072;11.688;2023-06-01T12:23:00;7.70;;;5.18;;
49852;SDS011;35751;48.072;11.688;2023-06-01T12:25:28;9.70;;;5.43;;
49852;SDS011;35751;48.072;11.688;2023-06-01T12:28:06;12.05;;;6.13;;
49852;SDS011;35751;48.072;11.688;2023-06-01T12:30:32;6.78;;;5.75;;
49852;SDS011;35751;48.072;11.688;2023-06-01T12:32:58;7.00;;;5.18;;
49852;SDS011;35751;48.072;11.688;2023-06-01T12:35:24;8.00;;;5.22;;
49852;SDS011;35751;48.072;11.688;2023-06-01T12:40:28;7.22;;;5.35;;
49852;SDS011;35751;48.072;11.688;2023-06-01T12:42:54;6.65;;;5.22;;
49852;SDS011;35751;48.072;11.688;2023-06-01T12:45:19;6.65;;;4.78;;
49852;SDS011;35751;48.072;11.688;2023-06-01T12:47:45;8.18;;;5.78;;
49852;SDS011;35751;48.072;11.688;2023-06-01T12:50:11;7.65;;;5.78;;
49852;SDS011;35751;48.072;11.688;2023-06-01T12:52:37;9.30;;;5.95;;
49852;SDS011;35751;48.072;11.688;2023-06-01T12:55:03;8.35;;;5.45;;
49852;SDS011;35751;48.072;11.688;2023-06-01T12:57:30;9.68;;;6.18;;
49852;SDS011;35751;48.072;11.688;2023-06-01T12:59:56;6.40;;;4.32;;
49852;SDS011;35751;48.072;11.688;2023-06-01T13:02:21;8.60;;;5.35;;
49852;SDS011;35751;48.072;11.688;2023-06-01T13:04:48;5.75;;;4.40;;
49852;SDS011;35751;48.072;11.688;2023-06-01T13:07:13;7.13;;;4.93;;
49852;SDS011;35751;48.072;11.688;2023-06-01T13:09:40;7.20;;;4.90;;
49852;SDS011;35751;48.072;11.688;2023-06-01T13:12:05;7.45;;;5.65;;
49852;SDS011;35751;48.072;11.688;2023-06-01T13:14:31;6.43;;;5.05;;
49852;SDS011;35751;48.072;11.688;2023-06-01T13:16:56;8.32;;;5.22;;
49852;SDS011;35751;48.072;11.688;2023-06-01T13:19:22;7.00;;;4.80;;
49852;SDS011;35751;48.072;11.688;2023-06-01T13:21:50;7.30;;;5.05;;
49852;SDS011;35751;48.072;11.688;2023-06-01T13:24:15;6.18;;;4.88;;
49852;SDS011;35751;48.072;11.688;2023-06-01T13:26:41;7.53;;;5.10;;
49852;SDS011;35751;48.072;11.688;2023-06-01T13:29:07;6.90;;;4.90;;
49852;SDS011;35751;48.072;11.688;2023-06-01T13:31:32;11.13;;;5.07;;
49852;SDS011;35751;48.072;11.688;2023-06-01T13:34:00;6.43;;;4.85;;
49852;SDS011;35751;48.072;11.688;2023-06-01T13:36:25;9.85;;;5.40;;
49852;SDS011;35751;48.072;11.688;2023-06-01T13:38:51;8.52;;;5.28;;
49852;SDS011;35751;48.072;11.688;2023-06-01T13:41:16;7.88;;;4.70;;
49852;SDS011;35751;48.072;11.688;2023-06-01T13:43:41;7.05;;;4.68;;
49852;SDS011;35751;48.072;11.688;2023-06-01T13:46:07;4.93;;;4.45;;
49852;SDS011;35751;48.072;11.688;2023-06-01T13:48:34;8.13;;;5.05;;
49852;SDS011;35751;48.072;11.688;2023-06-01T13:51:00;6.88;;;4.72;;
49852;SDS011;35751;48.072;11.688;2023-06-01T13:53:25;8.77;;;4.35;;
49852;SDS011;35751;48.072;11.688;2023-06-01T13:55:51;6.05;;;5.03;;
49852;SDS011;35751;48.072;11.688;2023-06-01T13:58:16;6.82;;;4.75;;
49852;SDS011;35751;48.072;11.688;2023-06-01T14:00:41;9.45;;;5.40;;
49852;SDS011;35751;48.072;11.688;2023-06-01T14:03:07;5.75;;;4.57;;
49852;SDS011;35751;48.072;11.688;2023-06-01T14:05:32;6.63;;;5.30;;
49852;SDS011;35751;48.072;11.688;2023-06-01T14:07:57;10.00;;;5.15;;
49852;SDS011;35751;48.072;11.688;2023-06-01T14:10:23;9.60;;;4.55;;
49852;SDS011;35751;48.072;11.688;2023-06-01T14:12:48;8.20;;;5.20;;
49852;SDS011;35751;48.072;11.688;2023-06-01T14:15:14;7.80;;;4.85;;
49852;SDS011;35751;48.072;11.688;2023-06-01T14:17:39;6.85;;;5.18;;
49852;SDS011;35751;48.072;11.688;2023-06-01T14:20:04;9.02;;;4.82;;
49852;SDS011;35751;48.072;11.688;2023-06-01T14:22:30;10.48;;;5.75;;
49852;SDS011;35751;48.072;11.688;2023-06-01T14:24:55;7.60;;;5.10;;
49852;SDS011;35751;48.072;11.688;2023-06-01T14:27:21;7.90;;;4.75;;
49852;SDS011;35751;48.072;11.688;2023-06-01T14:29:46;6.65;;;4.63;;
49852;SDS011;35751;48.072;11.688;2023-06-01T14:32:11;5.80;;;4.47;;
49852;SDS011;35751;48.072;11.688;2023-06-01T14:34:37;12.38;;;5.18;;
49852;SDS011;35751;48.072;11.688;2023-06-01T14:37:02;6.20;;;4.55;;
49852;SDS011;35751;48.072;11.688;2023-06-01T14:39:29;8.73;;;4.70;;
49852;SDS011;35751;48.072;11.688;2023-06-01T14:41:55;6.70;;;4.63;;
49852;SDS011;35751;48.072;11.688;2023-06-01T14:44:21;9.05;;;4.20;;
49852;SDS011;35751;48.072;11.688;2023-06-01T14:46:46;7.82;;;4.45;;
49852;SDS011;35751;48.072;11.688;2023-06-01T14:49:12;7.75;;;4.55;;
49852;SDS011;35751;48.072;11.688;2023-06-01T14:51:37;8.82;;;5.82;;
49852;SDS011;35751;48.072;11.688;2023-06-01T14:54:02;9.52;;;4.72;;
49852;SDS011;35751;48.072;11.688;2023-06-01T14:56:28;8.18;;;4.65;;
49852;SDS011;35751;48.072;11.688;2023-06-01T14:58:53;8.25;;;4.47;;
49852;SDS011;35751;48.072;11.688;2023-06-01T15:01:19;5.75;;;4.57;;
49852;SDS011;35751;48.072;11.688;2023-06-01T15:03:44;6.13;;;4.43;;
49852;SDS011;35751;48.072;11.688;2023-06-01T15:06:09;9.45;;;5.20;;
49852;SDS011;35751;48.072;11.688;2023-06-01T15:08:35;6.50;;;4.57;;
49852;SDS011;35751;48.072;11.688;2023-06-01T15:11:00;10.45;;;5.05;;
49852;SDS011;35751;48.072;11.688;2023-06-01T15:13:25;7.18;;;4.25;;
49852;SDS011;35751;48.072;11.688;2023-06-01T15:15:51;7.45;;;4.05;;
49852;SDS011;35751;48.072;11.688;2023-06-01T15:18:16;6.97;;;5.10;;
49852;SDS011;35751;48.072;11.688;2023-06-01T15:20:42;8.93;;;3.90;;
49852;SDS011;35751;48.072;11.688;2023-06-01T15:23:08;7.85;;;4.72;;
49852;SDS011;35751;48.072;11.688;2023-06-01T15:25:33;6.72;;;5.00;;